sensor_id;sensor_type;location;lat;lon;timestamp;P1;durP1;ratioP1;P2;durP2;ratioP2
23608;SDS011;11982;50.810;4.442;2022-08-04T00:03:51;10.55;;;4.82;;
23608;SDS011;11982;50.810;4.442;2022-08-04T00:06:27;7.75;;;4.63;;
23608;SDS011;11982;50.810;4.442;2022-08-04T00:09:09;7.63;;;4.13;;
23608;SDS011;11982;50.810;4.442;2022-08-04T00:11:44;10.25;;;4.60;;
23608;SDS011;11982;50.810;4.442;2022-08-04T00:14:13;12.70;;;4.65;;
23608;SDS011;11982;50.810;4.442;2022-08-04T00:16:41;12.15;;;4.28;;
23608;SDS011;11982;50.810;4.442;2022-08-04T00:19:11;9.75;;;4.68;;
23608;SDS011;11982;50.810;4.442;2022-08-04T00:21:59;13.68;;;5.20;;
23608;SDS011;11982;50.810;4.442;2022-08-04T00:24:31;7.00;;;4.75;;
23608;SDS011;11982;50.810;4.442;2022-08-04T00:26:59;8.10;;;4.82;;
23608;SDS011;11982;50.810;4.442;2022-08-04T00:29:25;10.27;;;4.78;;
23608;SDS011;11982;50.810;4.442;2022-08-04T00:31:51;8.98;;;4.30;;
23608;SDS011;11982;50.810;4.442;2022-08-04T00:34:18;19.02;;;4.70;;
23608;SDS011;11982;50.810;4.442;2022-08-04T00:36:44;7.32;;;4.50;;
23608;SDS011;11982;50.810;4.442;2022-08-04T00:39:11;9.73;;;4.47;;
23608;SDS011;11982;50.810;4.442;2022-08-04T00:50:44;9.13;;;4.40;;
23608;SDS011;11982;50.810;4.442;2022-08-04T00:53:26;9.23;;;4.72;;
23608;SDS011;11982;50.810;4.442;2022-08-04T00:59:31;9.05;;;5.07;;
23608;SDS011;11982;50.810;4.442;2022-08-04T01:04:36;8.98;;;4.28;;
23608;SDS011;11982;50.810;4.442;2022-08-04T01:07:23;14.48;;;5.10;;
23608;SDS011;11982;50.810;4.442;2022-08-04T01:10:23;15.48;;;5.70;;
23608;SDS011;11982;50.810;4.442;2022-08-04T01:18:32;9.57;;;5.03;;
23608;SDS011;11982;50.810;4.442;2022-08-04T01:27:05;8.73;;;4.97;;
23608;SDS011;11982;50.810;4.442;2022-08-04T01:29:22;8.57;;;5.40;;
23608;SDS011;11982;50.810;4.442;2022-08-04T01:34:21;10.77;;;5.25;;
23608;SDS011;11982;50.810;4.442;2022-08-04T01:36:56;10.20;;;5.18;;
23608;SDS011;11982;50.810;4.442;2022-08-04T01:39:26;9.18;;;5.10;;
23608;SDS011;11982;50.810;4.442;2022-08-04T01:42:07;8.52;;;5.03;;
23608;SDS011;11982;50.810;4.442;2022-08-04T01:44:34;8.85;;;5.05;;
23608;SDS011;11982;50.810;4.442;2022-08-04T01:47:02;12.15;;;5.47;;
23608;SDS011;11982;50.810;4.442;2022-08-04T01:49:29;12.30;;;4.97;;
23608;SDS011;11982;50.810;4.442;2022-08-04T01:51:56;12.98;;;5.60;;
23608;SDS011;11982;50.810;4.442;2022-08-04T01:54:22;8.07;;;5.10;;
23608;SDS011;11982;50.810;4.442;2022-08-04T01:56:49;11.30;;;4.93;;
23608;SDS011;11982;50.810;4.442;2022-08-04T01:59:17;9.07;;;4.80;;
23608;SDS011;11982;50.810;4.442;2022-08-04T02:01:44;10.02;;;5.32;;
23608;SDS011;11982;50.810;4.442;2022-08-04T02:04:18;11.27;;;5.05;;
23608;SDS011;11982;50.810;4.442;2022-08-04T02:06:55;16.95;;;5.35;;
23608;SDS011;11982;50.810;4.442;2022-08-04T02:09:43;7.75;;;5.25;;
23608;SDS011;11982;50.810;4.442;2022-08-04T02:12:24;8.45;;;5.38;;
23608;SDS011;11982;50.810;4.442;2022-08-04T02:14:58;13.23;;;5.20;;
23608;SDS011;11982;50.810;4.442;2022-08-04T02:17:31;10.88;;;5.53;;
23608;SDS011;11982;50.810;4.442;2022-08-04T02:20:28;12.18;;;5.32;;
23608;SDS011;11982;50.810;4.442;2022-08-04T02:23:13;14.43;;;6.40;;
23608;SDS011;11982;50.810;4.442;2022-08-04T02:26:00;15.23;;;7.25;;
23608;SDS011;11982;50.810;4.442;2022-08-04T02:31:07;12.23;;;7.05;;
23608;SDS011;11982;50.810;4.442;2022-08-04T02:33:39;14.15;;;6.68;;
23608;SDS011;11982;50.810;4.442;2022-08-04T02:36:09;13.43;;;6.28;;
23608;SDS011;11982;50.810;4.442;2022-08-04T02:41:20;12.30;;;6.00;;
23608;SDS011;11982;50.810;4.442;2022-08-04T02:43:48;13.52;;;6.40;;
23608;SDS011;11982;50.810;4.442;2022-08-04T02:46:17;9.48;;;6.05;;
23608;SDS011;11982;50.810;4.442;2022-08-04T02:48:44;15.73;;;6.43;;
23608;SDS011;11982;50.810;4.442;2022-08-04T02:51:12;9.95;;;5.82;;
23608;SDS011;11982;50.810;4.442;2022-08-04T02:53:39;11.25;;;6.00;;
23608;SDS011;11982;50.810;4.442;2022-08-04T02:56:06;9.77;;;5.90;;
23608;SDS011;11982;50.810;4.442;2022-08-04T02:58:33;11.18;;;6.10;;
23608;SDS011;11982;50.810;4.442;2022-08-04T03:01:00;14.07;;;6.57;;
23608;SDS011;11982;50.810;4.442;2022-08-04T03:08:50;8.23;;;5.65;;
23608;SDS011;11982;50.810;4.442;2022-08-04T03:22:52;11.30;;;5.97;;
23608;SDS011;11982;50.810;4.442;2022-08-04T03:51:58;8.77;;;5.88;;
23608;SDS011;11982;50.810;4.442;2022-08-04T04:09:37;16.48;;;6.22;;
23608;SDS011;11982;50.810;4.442;2022-08-04T04:12:38;9.90;;;6.35;;
23608;SDS011;11982;50.810;4.442;2022-08-04T04:15:19;8.25;;;5.65;;
23608;SDS011;11982;50.810;4.442;2022-08-04T04:20:32;11.63;;;5.55;;
23608;SDS011;11982;50.810;4.442;2022-08-04T04:26:06;18.75;;;5.85;;
23608;SDS011;11982;50.810;4.442;2022-08-04T04:29:40;12.45;;;6.45;;
23608;SDS011;11982;50.810;4.442;2022-08-04T04:34:34;7.95;;;5.05;;
23608;SDS011;11982;50.810;4.442;2022-08-04T04:37:19;10.00;;;5.95;;
23608;SDS011;11982;50.810;4.442;2022-08-04T04:51:22;8.23;;;5.80;;
23608;SDS011;11982;50.810;4.442;2022-08-04T04:59:36;12.43;;;6.38;;
23608;SDS011;11982;50.810;4.442;2022-08-04T05:02:20;9.15;;;5.03;;
23608;SDS011;11982;50.810;4.442;2022-08-04T05:16:54;12.05;;;4.82;;
23608;SDS011;11982;50.810;4.442;2022-08-04T05:21:58;12.07;;;4.82;;
23608;SDS011;11982;50.810;4.442;2022-08-04T05:24:31;14.80;;;5.00;;
23608;SDS011;11982;50.810;4.442;2022-08-04T05:27:02;12.95;;;5.10;;
23608;SDS011;11982;50.810;4.442;2022-08-04T05:29:37;11.77;;;4.83;;
23608;SDS011;11982;50.810;4.442;2022-08-04T05:32:25;9.15;;;4.40;;
23608;SDS011;11982;50.810;4.442;2022-08-04T05:34:56;17.90;;;5.18;;
23608;SDS011;11982;50.810;4.442;2022-08-04T05:37:28;16.08;;;4.85;;
23608;SDS011;11982;50.810;4.442;2022-08-04T05:39:56;13.68;;;4.47;;
23608;SDS011;11982;50.810;4.442;2022-08-04T05:42:27;14.07;;;3.80;;
23608;SDS011;11982;50.810;4.442;2022-08-04T05:44:55;10.65;;;3.95;;
23608;SDS011;11982;50.810;4.442;2022-08-04T05:47:23;9.30;;;4.20;;
23608;SDS011;11982;50.810;4.442;2022-08-04T05:49:49;9.05;;;4.28;;
23608;SDS011;11982;50.810;4.442;2022-08-04T05:52:16;10.02;;;4.25;;
23608;SDS011;11982;50.810;4.442;2022-08-04T05:54:42;12.18;;;4.70;;
23608;SDS011;11982;50.810;4.442;2022-08-04T05:57:09;16.33;;;5.05;;
23608;SDS011;11982;50.810;4.442;2022-08-04T05:59:39;16.50;;;5.93;;
23608;SDS011;11982;50.810;4.442;2022-08-04T06:02:10;9.95;;;4.55;;
23608;SDS011;11982;50.810;4.442;2022-08-04T06:04:38;16.80;;;4.95;;
23608;SDS011;11982;50.810;4.442;2022-08-04T06:07:05;13.88;;;4.75;;
23608;SDS011;11982;50.810;4.442;2022-08-04T06:09:32;11.95;;;4.07;;
23608;SDS011;11982;50.810;4.442;2022-08-04T06:12:02;14.82;;;4.85;;
23608;SDS011;11982;50.810;4.442;2022-08-04T06:14:32;13.13;;;3.80;;
23608;SDS011;11982;50.810;4.442;2022-08-04T06:17:03;11.88;;;4.50;;
23608;SDS011;11982;50.810;4.442;2022-08-04T06:19:32;14.48;;;4.22;;
23608;SDS011;11982;50.810;4.442;2022-08-04T06:22:01;10.52;;;4.38;;
23608;SDS011;11982;50.810;4.442;2022-08-04T06:24:28;13.10;;;4.88;;
23608;SDS011;11982;50.810;4.442;2022-08-04T06:26:56;12.10;;;4.28;;
23608;SDS011;11982;50.810;4.442;2022-08-04T06:29:23;20.85;;;4.30;;
23608;SDS011;11982;50.810;4.442;2022-08-04T06:31:57;12.93;;;3.85;;
23608;SDS011;11982;50.810;4.442;2022-08-04T06:34:27;12.35;;;3.92;;
23608;SDS011;11982;50.810;4.442;2022-08-04T06:36:56;11.18;;;3.92;;
23608;SDS011;11982;50.810;4.442;2022-08-04T06:39:23;11.35;;;4.55;;
23608;SDS011;11982;50.810;4.442;2022-08-04T06:41:52;9.15;;;3.25;;
23608;SDS011;11982;50.810;4.442;2022-08-04T06:44:18;9.75;;;3.63;;
23608;SDS011;11982;50.810;4.442;2022-08-04T06:46:46;11.85;;;4.15;;
23608;SDS011;11982;50.810;4.442;2022-08-04T06:49:12;12.27;;;3.92;;
23608;SDS011;11982;50.810;4.442;2022-08-04T06:51:38;13.48;;;4.20;;
23608;SDS011;11982;50.810;4.442;2022-08-04T06:54:06;13.65;;;3.78;;
23608;SDS011;11982;50.810;4.442;2022-08-04T06:56:32;11.25;;;3.83;;
23608;SDS011;11982;50.810;4.442;2022-08-04T06:59:01;12.60;;;3.45;;
23608;SDS011;11982;50.810;4.442;2022-08-04T07:01:27;14.93;;;3.78;;
23608;SDS011;11982;50.810;4.442;2022-08-04T07:03:54;11.73;;;3.15;;
23608;SDS011;11982;50.810;4.442;2022-08-04T07:06:21;9.02;;;3.03;;
23608;SDS011;11982;50.810;4.442;2022-08-04T07:08:47;12.98;;;3.45;;
23608;SDS011;11982;50.810;4.442;2022-08-04T07:11:13;21.48;;;3.75;;
23608;SDS011;11982;50.810;4.442;2022-08-04T07:13:40;14.90;;;2.97;;
23608;SDS011;11982;50.810;4.442;2022-08-04T07:16:07;10.90;;;2.92;;
23608;SDS011;11982;50.810;4.442;2022-08-04T07:18:36;12.48;;;2.90;;
23608;SDS011;11982;50.810;4.442;2022-08-04T07:21:02;8.60;;;3.10;;
23608;SDS011;11982;50.810;4.442;2022-08-04T07:23:28;15.70;;;3.15;;
23608;SDS011;11982;50.810;4.442;2022-08-04T07:25:55;15.18;;;3.78;;
23608;SDS011;11982;50.810;4.442;2022-08-04T07:28:23;10.45;;;2.85;;
23608;SDS011;11982;50.810;4.442;2022-08-04T07:30:52;12.60;;;3.50;;
23608;SDS011;11982;50.810;4.442;2022-08-04T07:33:19;9.48;;;3.05;;
23608;SDS011;11982;50.810;4.442;2022-08-04T07:35:45;9.55;;;3.28;;
23608;SDS011;11982;50.810;4.442;2022-08-04T07:38:13;15.70;;;3.40;;
23608;SDS011;11982;50.810;4.442;2022-08-04T07:40:39;14.93;;;3.38;;
23608;SDS011;11982;50.810;4.442;2022-08-04T07:43:05;6.68;;;3.13;;
23608;SDS011;11982;50.810;4.442;2022-08-04T07:45:31;9.85;;;3.85;;
23608;SDS011;11982;50.810;4.442;2022-08-04T07:47:57;19.33;;;3.83;;
23608;SDS011;11982;50.810;4.442;2022-08-04T07:50:23;11.48;;;3.60;;
23608;SDS011;11982;50.810;4.442;2022-08-04T07:52:50;14.02;;;4.07;;
23608;SDS011;11982;50.810;4.442;2022-08-04T07:55:16;19.88;;;4.30;;
23608;SDS011;11982;50.810;4.442;2022-08-04T07:57:43;10.90;;;4.38;;
23608;SDS011;11982;50.810;4.442;2022-08-04T08:00:09;11.07;;;4.07;;
23608;SDS011;11982;50.810;4.442;2022-08-04T08:02:38;12.18;;;4.28;;
23608;SDS011;11982;50.810;4.442;2022-08-04T08:05:07;12.80;;;4.68;;
23608;SDS011;11982;50.810;4.442;2022-08-04T08:07:34;15.20;;;4.40;;
23608;SDS011;11982;50.810;4.442;2022-08-04T08:10:00;13.05;;;4.00;;
23608;SDS011;11982;50.810;4.442;2022-08-04T08:12:26;14.90;;;4.22;;
23608;SDS011;11982;50.810;4.442;2022-08-04T08:14:53;11.25;;;5.50;;
23608;SDS011;11982;50.810;4.442;2022-08-04T08:17:19;13.20;;;4.90;;
23608;SDS011;11982;50.810;4.442;2022-08-04T08:19:45;12.88;;;4.32;;
23608;SDS011;11982;50.810;4.442;2022-08-04T08:22:10;14.85;;;4.53;;
23608;SDS011;11982;50.810;4.442;2022-08-04T08:24:36;11.00;;;4.38;;
23608;SDS011;11982;50.810;4.442;2022-08-04T08:27:02;14.77;;;4.30;;
23608;SDS011;11982;50.810;4.442;2022-08-04T08:29:28;13.90;;;4.63;;
23608;SDS011;11982;50.810;4.442;2022-08-04T08:31:56;14.57;;;4.57;;
23608;SDS011;11982;50.810;4.442;2022-08-04T08:34:24;19.85;;;5.00;;
23608;SDS011;11982;50.810;4.442;2022-08-04T08:36:52;18.27;;;5.50;;
23608;SDS011;11982;50.810;4.442;2022-08-04T08:39:27;17.05;;;5.75;;
23608;SDS011;11982;50.810;4.442;2022-08-04T08:58:33;17.05;;;5.43;;
23608;SDS011;11982;50.810;4.442;2022-08-04T09:06:43;12.70;;;5.72;;
23608;SDS011;11982;50.810;4.442;2022-08-04T09:09:35;15.82;;;5.18;;
23608;SDS011;11982;50.810;4.442;2022-08-04T09:12:27;17.08;;;5.72;;
23608;SDS011;11982;50.810;4.442;2022-08-04T09:15:17;14.10;;;5.50;;
23608;SDS011;11982;50.810;4.442;2022-08-04T09:17:56;18.40;;;6.30;;
23608;SDS011;11982;50.810;4.442;2022-08-04T09:20:27;16.80;;;7.20;;
23608;SDS011;11982;50.810;4.442;2022-08-04T09:26:20;17.50;;;6.57;;
23608;SDS011;11982;50.810;4.442;2022-08-04T09:34:50;14.52;;;6.60;;
23608;SDS011;11982;50.810;4.442;2022-08-04T09:40:06;15.35;;;6.07;;
23608;SDS011;11982;50.810;4.442;2022-08-04T09:42:37;20.13;;;6.70;;
23608;SDS011;11982;50.810;4.442;2022-08-04T09:45:18;17.10;;;6.60;;
23608;SDS011;11982;50.810;4.442;2022-08-04T09:47:59;19.42;;;8.07;;
23608;SDS011;11982;50.810;4.442;2022-08-04T09:50:38;16.17;;;7.82;;
23608;SDS011;11982;50.810;4.442;2022-08-04T09:56:09;17.15;;;9.55;;
23608;SDS011;11982;50.810;4.442;2022-08-04T10:01:28;25.05;;;11.63;;
23608;SDS011;11982;50.810;4.442;2022-08-04T10:03:58;32.80;;;15.25;;
23608;SDS011;11982;50.810;4.442;2022-08-04T10:09:11;37.95;;;17.05;;
23608;SDS011;11982;50.810;4.442;2022-08-04T10:17:01;38.13;;;17.55;;
23608;SDS011;11982;50.810;4.442;2022-08-04T10:19:37;35.75;;;17.35;;
23608;SDS011;11982;50.810;4.442;2022-08-04T10:22:18;37.47;;;18.98;;
23608;SDS011;11982;50.810;4.442;2022-08-04T10:27:53;34.75;;;18.17;;
23608;SDS011;11982;50.810;4.442;2022-08-04T10:30:22;38.25;;;18.67;;
23608;SDS011;11982;50.810;4.442;2022-08-04T10:33:10;31.83;;;17.38;;
23608;SDS011;11982;50.810;4.442;2022-08-04T10:35:48;31.08;;;17.08;;
23608;SDS011;11982;50.810;4.442;2022-08-04T10:41:24;34.55;;;18.85;;
23608;SDS011;11982;50.810;4.442;2022-08-04T10:44:16;29.50;;;16.40;;
23608;SDS011;11982;50.810;4.442;2022-08-04T10:47:00;33.47;;;17.48;;
23608;SDS011;11982;50.810;4.442;2022-08-04T10:52:07;37.20;;;19.92;;
23608;SDS011;11982;50.810;4.442;2022-08-04T11:02:24;34.55;;;19.67;;
23608;SDS011;11982;50.810;4.442;2022-08-04T11:05:09;31.30;;;18.05;;
23608;SDS011;11982;50.810;4.442;2022-08-04T11:07:49;37.75;;;19.88;;
23608;SDS011;11982;50.810;4.442;2022-08-04T11:10:18;38.50;;;20.80;;
23608;SDS011;11982;50.810;4.442;2022-08-04T11:12:46;36.60;;;21.00;;
23608;SDS011;11982;50.810;4.442;2022-08-04T11:15:19;36.33;;;21.83;;
23608;SDS011;11982;50.810;4.442;2022-08-04T11:17:51;34.72;;;19.83;;
23608;SDS011;11982;50.810;4.442;2022-08-04T11:20:28;33.38;;;18.92;;
23608;SDS011;11982;50.810;4.442;2022-08-04T11:23:05;36.40;;;20.52;;
23608;SDS011;11982;50.810;4.442;2022-08-04T11:25:54;27.55;;;17.85;;
23608;SDS011;11982;50.810;4.442;2022-08-04T11:31:24;24.73;;;15.65;;
23608;SDS011;11982;50.810;4.442;2022-08-04T11:34:13;26.52;;;16.60;;
23608;SDS011;11982;50.810;4.442;2022-08-04T11:44:58;27.55;;;16.45;;
23608;SDS011;11982;50.810;4.442;2022-08-04T11:47:27;25.08;;;15.63;;
23608;SDS011;11982;50.810;4.442;2022-08-04T11:50:07;28.35;;;17.27;;
23608;SDS011;11982;50.810;4.442;2022-08-04T11:52:34;22.63;;;15.82;;
23608;SDS011;11982;50.810;4.442;2022-08-04T11:55:04;23.63;;;15.77;;
23608;SDS011;11982;50.810;4.442;2022-08-04T11:57:33;30.20;;;17.15;;
23608;SDS011;11982;50.810;4.442;2022-08-04T11:59:59;25.33;;;15.50;;
23608;SDS011;11982;50.810;4.442;2022-08-04T12:02:36;25.13;;;14.60;;
23608;SDS011;11982;50.810;4.442;2022-08-04T12:05:05;26.25;;;14.88;;
23608;SDS011;11982;50.810;4.442;2022-08-04T12:07:50;24.20;;;14.45;;
23608;SDS011;11982;50.810;4.442;2022-08-04T12:10:32;22.15;;;15.98;;
23608;SDS011;11982;50.810;4.442;2022-08-04T12:13:23;29.65;;;17.90;;
23608;SDS011;11982;50.810;4.442;2022-08-04T12:18:55;20.98;;;14.50;;
23608;SDS011;11982;50.810;4.442;2022-08-04T12:21:26;24.00;;;16.20;;
23608;SDS011;11982;50.810;4.442;2022-08-04T12:23:53;24.30;;;17.50;;
23608;SDS011;11982;50.810;4.442;2022-08-04T12:26:26;19.48;;;13.75;;
23608;SDS011;11982;50.810;4.442;2022-08-04T12:28:59;18.50;;;12.65;;
23608;SDS011;11982;50.810;4.442;2022-08-04T12:31:27;22.10;;;12.63;;
23608;SDS011;11982;50.810;4.442;2022-08-04T12:34:14;18.35;;;12.02;;
23608;SDS011;11982;50.810;4.442;2022-08-04T12:39:29;14.63;;;10.50;;
23608;SDS011;11982;50.810;4.442;2022-08-04T12:44:39;19.85;;;11.63;;
23608;SDS011;11982;50.810;4.442;2022-08-04T12:47:07;19.17;;;11.30;;
23608;SDS011;11982;50.810;4.442;2022-08-04T12:49:37;18.70;;;9.90;;
23608;SDS011;11982;50.810;4.442;2022-08-04T12:52:06;16.13;;;10.45;;
23608;SDS011;11982;50.810;4.442;2022-08-04T12:54:33;17.75;;;10.40;;
23608;SDS011;11982;50.810;4.442;2022-08-04T12:57:02;17.98;;;9.90;;
23608;SDS011;11982;50.810;4.442;2022-08-04T12:59:43;14.43;;;8.57;;
23608;SDS011;11982;50.810;4.442;2022-08-04T13:02:44;14.30;;;6.97;;
23608;SDS011;11982;50.810;4.442;2022-08-04T13:05:06;15.02;;;7.80;;
23608;SDS011;11982;50.810;4.442;2022-08-04T13:07:37;14.25;;;7.60;;
23608;SDS011;11982;50.810;4.442;2022-08-04T13:10:10;10.98;;;6.57;;
23608;SDS011;11982;50.810;4.442;2022-08-04T13:12:37;13.35;;;6.50;;
23608;SDS011;11982;50.810;4.442;2022-08-04T13:15:08;10.32;;;6.13;;
23608;SDS011;11982;50.810;4.442;2022-08-04T13:18:09;10.65;;;7.53;;
23608;SDS011;11982;50.810;4.442;2022-08-04T13:20:36;14.90;;;7.07;;
23608;SDS011;11982;50.810;4.442;2022-08-04T13:25:29;9.52;;;6.20;;
23608;SDS011;11982;50.810;4.442;2022-08-04T13:27:56;12.13;;;6.88;;
23608;SDS011;11982;50.810;4.442;2022-08-04T13:30:24;10.10;;;6.35;;
23608;SDS011;11982;50.810;4.442;2022-08-04T13:32:52;13.25;;;5.82;;
23608;SDS011;11982;50.810;4.442;2022-08-04T13:35:22;11.02;;;5.75;;
23608;SDS011;11982;50.810;4.442;2022-08-04T13:37:48;9.77;;;6.75;;
23608;SDS011;11982;50.810;4.442;2022-08-04T13:40:15;11.52;;;6.78;;
23608;SDS011;11982;50.810;4.442;2022-08-04T13:42:47;13.93;;;8.70;;
23608;SDS011;11982;50.810;4.442;2022-08-04T13:45:15;8.38;;;6.10;;
23608;SDS011;11982;50.810;4.442;2022-08-04T13:47:46;9.70;;;5.35;;
23608;SDS011;11982;50.810;4.442;2022-08-04T13:52:47;8.68;;;5.00;;
23608;SDS011;11982;50.810;4.442;2022-08-04T13:55:17;10.70;;;5.97;;
23608;SDS011;11982;50.810;4.442;2022-08-04T13:57:48;10.07;;;5.40;;
23608;SDS011;11982;50.810;4.442;2022-08-04T14:00:18;8.02;;;4.78;;
23608;SDS011;11982;50.810;4.442;2022-08-04T14:03:03;8.57;;;5.05;;
23608;SDS011;11982;50.810;4.442;2022-08-04T14:05:31;13.25;;;6.35;;
23608;SDS011;11982;50.810;4.442;2022-08-04T14:10:58;9.30;;;6.10;;
23608;SDS011;11982;50.810;4.442;2022-08-04T14:13:33;10.65;;;6.20;;
23608;SDS011;11982;50.810;4.442;2022-08-04T14:15:59;11.90;;;7.15;;
23608;SDS011;11982;50.810;4.442;2022-08-04T14:18:26;6.88;;;5.93;;
23608;SDS011;11982;50.810;4.442;2022-08-04T14:23:24;8.35;;;4.72;;
23608;SDS011;11982;50.810;4.442;2022-08-04T14:25:51;9.30;;;5.03;;
23608;SDS011;11982;50.810;4.442;2022-08-04T14:28:26;9.18;;;5.22;;
23608;SDS011;11982;50.810;4.442;2022-08-04T14:31:07;11.93;;;6.10;;
23608;SDS011;11982;50.810;4.442;2022-08-04T14:33:37;18.30;;;5.50;;
23608;SDS011;11982;50.810;4.442;2022-08-04T14:36:04;9.18;;;5.65;;
23608;SDS011;11982;50.810;4.442;2022-08-04T14:38:41;11.27;;;5.60;;
23608;SDS011;11982;50.810;4.442;2022-08-04T14:41:21;12.93;;;6.88;;
23608;SDS011;11982;50.810;4.442;2022-08-04T14:43:56;9.93;;;6.05;;
23608;SDS011;11982;50.810;4.442;2022-08-04T14:46:24;10.80;;;5.82;;
23608;SDS011;11982;50.810;4.442;2022-08-04T14:49:07;14.95;;;5.43;;
23608;SDS011;11982;50.810;4.442;2022-08-04T14:51:40;11.98;;;5.18;;
23608;SDS011;11982;50.810;4.442;2022-08-04T14:54:32;7.45;;;5.20;;
23608;SDS011;11982;50.810;4.442;2022-08-04T14:57:04;7.80;;;4.45;;
23608;SDS011;11982;50.810;4.442;2022-08-04T14:59:43;6.40;;;4.03;;
23608;SDS011;11982;50.810;4.442;2022-08-04T15:02:13;5.28;;;3.55;;
23608;SDS011;11982;50.810;4.442;2022-08-04T15:04:41;6.38;;;3.30;;
23608;SDS011;11982;50.810;4.442;2022-08-04T15:07:09;5.22;;;3.50;;
23608;SDS011;11982;50.810;4.442;2022-08-04T15:09:35;6.28;;;4.25;;
23608;SDS011;11982;50.810;4.442;2022-08-04T15:12:00;9.80;;;4.32;;
23608;SDS011;11982;50.810;4.442;2022-08-04T15:14:28;6.45;;;4.65;;
23608;SDS011;11982;50.810;4.442;2022-08-04T15:16:55;7.03;;;5.28;;
23608;SDS011;11982;50.810;4.442;2022-08-04T15:19:21;8.68;;;4.18;;
23608;SDS011;11982;50.810;4.442;2022-08-04T15:21:47;11.65;;;4.95;;
23608;SDS011;11982;50.810;4.442;2022-08-04T15:24:13;8.45;;;4.97;;
23608;SDS011;11982;50.810;4.442;2022-08-04T15:26:41;7.90;;;4.75;;
23608;SDS011;11982;50.810;4.442;2022-08-04T15:32:04;9.10;;;4.90;;
23608;SDS011;11982;50.810;4.442;2022-08-04T15:34:48;10.10;;;4.68;;
23608;SDS011;11982;50.810;4.442;2022-08-04T15:40:13;12.93;;;4.50;;
23608;SDS011;11982;50.810;4.442;2022-08-04T15:42:46;6.53;;;4.20;;
23608;SDS011;11982;50.810;4.442;2022-08-04T15:45:24;8.40;;;4.53;;
23608;SDS011;11982;50.810;4.442;2022-08-04T15:58:22;8.07;;;5.53;;
23608;SDS011;11982;50.810;4.442;2022-08-04T16:08:30;8.40;;;4.10;;
23608;SDS011;11982;50.810;4.442;2022-08-04T16:18:53;8.25;;;4.70;;
23608;SDS011;11982;50.810;4.442;2022-08-04T16:21:21;11.32;;;5.63;;
23608;SDS011;11982;50.810;4.442;2022-08-04T16:29:00;8.05;;;4.30;;
23608;SDS011;11982;50.810;4.442;2022-08-04T16:34:29;10.27;;;5.55;;
23608;SDS011;11982;50.810;4.442;2022-08-04T16:37:00;11.85;;;3.70;;
23608;SDS011;11982;50.810;4.442;2022-08-04T16:39:27;6.57;;;3.53;;
23608;SDS011;11982;50.810;4.442;2022-08-04T16:41:53;9.10;;;4.10;;
23608;SDS011;11982;50.810;4.442;2022-08-04T16:46:58;8.55;;;4.25;;
23608;SDS011;11982;50.810;4.442;2022-08-04T16:49:25;9.02;;;4.00;;
23608;SDS011;11982;50.810;4.442;2022-08-04T16:51:52;8.70;;;4.35;;
23608;SDS011;11982;50.810;4.442;2022-08-04T16:54:18;8.85;;;3.90;;
23608;SDS011;11982;50.810;4.442;2022-08-04T16:56:47;10.85;;;4.10;;
23608;SDS011;11982;50.810;4.442;2022-08-04T16:59:13;10.73;;;4.20;;
23608;SDS011;11982;50.810;4.442;2022-08-04T17:01:46;9.35;;;3.90;;
23608;SDS011;11982;50.810;4.442;2022-08-04T17:04:13;9.48;;;4.18;;
23608;SDS011;11982;50.810;4.442;2022-08-04T17:06:40;8.63;;;3.80;;
23608;SDS011;11982;50.810;4.442;2022-08-04T17:09:10;7.43;;;4.00;;
23608;SDS011;11982;50.810;4.442;2022-08-04T17:11:37;7.30;;;4.10;;
23608;SDS011;11982;50.810;4.442;2022-08-04T17:14:04;6.63;;;3.55;;
23608;SDS011;11982;50.810;4.442;2022-08-04T17:16:29;7.65;;;3.63;;
23608;SDS011;11982;50.810;4.442;2022-08-04T17:19:01;8.40;;;3.55;;
23608;SDS011;11982;50.810;4.442;2022-08-04T17:21:28;9.82;;;4.13;;
23608;SDS011;11982;50.810;4.442;2022-08-04T17:23:56;9.57;;;3.33;;
23608;SDS011;11982;50.810;4.442;2022-08-04T17:26:24;5.65;;;3.70;;
23608;SDS011;11982;50.810;4.442;2022-08-04T17:28:55;6.18;;;3.55;;
23608;SDS011;11982;50.810;4.442;2022-08-04T17:31:22;7.38;;;2.85;;
23608;SDS011;11982;50.810;4.442;2022-08-04T17:33:53;8.02;;;3.67;;
23608;SDS011;11982;50.810;4.442;2022-08-04T17:36:28;9.45;;;3.95;;
23608;SDS011;11982;50.810;4.442;2022-08-04T17:38:56;7.95;;;3.30;;
23608;SDS011;11982;50.810;4.442;2022-08-04T17:41:25;9.77;;;3.20;;
23608;SDS011;11982;50.810;4.442;2022-08-04T17:51:50;10.18;;;3.35;;
23608;SDS011;11982;50.810;4.442;2022-08-04T17:56:51;8.70;;;3.90;;
23608;SDS011;11982;50.810;4.442;2022-08-04T18:04:32;7.50;;;3.25;;
23608;SDS011;11982;50.810;4.442;2022-08-04T18:09:40;9.38;;;3.45;;
23608;SDS011;11982;50.810;4.442;2022-08-04T18:12:24;9.65;;;3.20;;
23608;SDS011;11982;50.810;4.442;2022-08-04T18:14:52;7.45;;;3.30;;
23608;SDS011;11982;50.810;4.442;2022-08-04T18:20:15;7.90;;;3.60;;
23608;SDS011;11982;50.810;4.442;2022-08-04T18:22:46;9.27;;;3.88;;
23608;SDS011;11982;50.810;4.442;2022-08-04T18:25:13;9.13;;;4.00;;
23608;SDS011;11982;50.810;4.442;2022-08-04T18:30:13;10.05;;;4.28;;
23608;SDS011;11982;50.810;4.442;2022-08-04T18:32:39;7.78;;;4.10;;
23608;SDS011;11982;50.810;4.442;2022-08-04T18:35:05;15.02;;;4.70;;
23608;SDS011;11982;50.810;4.442;2022-08-04T18:37:31;8.20;;;4.22;;
23608;SDS011;11982;50.810;4.442;2022-08-04T18:39:58;8.65;;;3.75;;
23608;SDS011;11982;50.810;4.442;2022-08-04T18:42:23;7.45;;;3.72;;
23608;SDS011;11982;50.810;4.442;2022-08-04T18:44:51;9.40;;;4.57;;
23608;SDS011;11982;50.810;4.442;2022-08-04T18:47:21;9.98;;;3.72;;
23608;SDS011;11982;50.810;4.442;2022-08-04T18:49:50;10.73;;;4.10;;
23608;SDS011;11982;50.810;4.442;2022-08-04T18:52:16;12.57;;;4.22;;
23608;SDS011;11982;50.810;4.442;2022-08-04T18:54:42;12.13;;;4.50;;
23608;SDS011;11982;50.810;4.442;2022-08-04T18:57:08;7.38;;;3.58;;
23608;SDS011;11982;50.810;4.442;2022-08-04T18:59:34;9.02;;;3.72;;
23608;SDS011;11982;50.810;4.442;2022-08-04T19:01:59;8.10;;;3.55;;
23608;SDS011;11982;50.810;4.442;2022-08-04T19:04:25;7.65;;;3.97;;
23608;SDS011;11982;50.810;4.442;2022-08-04T19:06:51;13.07;;;3.70;;
23608;SDS011;11982;50.810;4.442;2022-08-04T19:09:16;10.80;;;3.75;;
23608;SDS011;11982;50.810;4.442;2022-08-04T19:11:42;10.48;;;4.05;;
23608;SDS011;11982;50.810;4.442;2022-08-04T19:14:08;13.15;;;4.53;;
23608;SDS011;11982;50.810;4.442;2022-08-04T19:16:33;14.63;;;5.07;;
23608;SDS011;11982;50.810;4.442;2022-08-04T19:19:02;13.30;;;4.57;;
23608;SDS011;11982;50.810;4.442;2022-08-04T19:21:29;9.40;;;4.45;;
23608;SDS011;11982;50.810;4.442;2022-08-04T19:23:55;9.95;;;4.50;;
23608;SDS011;11982;50.810;4.442;2022-08-04T19:26:21;13.70;;;5.63;;
23608;SDS011;11982;50.810;4.442;2022-08-04T19:28:49;16.65;;;5.80;;
23608;SDS011;11982;50.810;4.442;2022-08-04T19:31:15;10.85;;;6.15;;
23608;SDS011;11982;50.810;4.442;2022-08-04T19:33:41;14.20;;;6.15;;
23608;SDS011;11982;50.810;4.442;2022-08-04T19:36:07;15.48;;;6.90;;
23608;SDS011;11982;50.810;4.442;2022-08-04T19:38:34;14.10;;;6.70;;
23608;SDS011;11982;50.810;4.442;2022-08-04T19:41:01;13.80;;;7.05;;
23608;SDS011;11982;50.810;4.442;2022-08-04T19:43:28;15.25;;;7.95;;
23608;SDS011;11982;50.810;4.442;2022-08-04T19:45:55;13.57;;;7.50;;
23608;SDS011;11982;50.810;4.442;2022-08-04T19:48:20;18.58;;;8.95;;
23608;SDS011;11982;50.810;4.442;2022-08-04T19:50:46;17.83;;;9.40;;
23608;SDS011;11982;50.810;4.442;2022-08-04T19:53:12;21.15;;;9.10;;
23608;SDS011;11982;50.810;4.442;2022-08-04T19:55:39;13.45;;;8.48;;
23608;SDS011;11982;50.810;4.442;2022-08-04T19:58:06;16.92;;;9.02;;